sensor_id;sensor_type;location;lat;lon;timestamp;pressure;altitude;pressure_sealevel;temperature;humidity
2875;BME280;1445;52.600;13.328;2023-02-12T00:00:00;102781.34;;;6.77;100.00
2875;BME280;1445;52.600;13.328;2023-02-12T00:02:26;102775.09;;;6.69;100.00
2875;BME280;1445;52.600;13.328;2023-02-12T00:04:51;102781.41;;;6.70;100.00
2875;BME280;1445;52.600;13.328;2023-02-12T00:07:17;102781.78;;;6.74;100.00
2875;BME280;1445;52.600;13.328;2023-02-12T00:09:42;102792.16;;;6.72;100.00
2875;BME280;1445;52.600;13.328;2023-02-12T00:12:08;102791.53;;;6.69;100.00
2875;BME280;1445;52.600;13.328;2023-02-12T00:14:35;102793.69;;;6.67;100.00
2875;BME280;1445;52.600;13.328;2023-02-12T00:17:01;102798.03;;;6.75;100.00
2875;BME280;1445;52.600;13.328;2023-02-12T00:19:26;102803.28;;;6.77;100.00
2875;BME280;1445;52.600;13.328;2023-02-12T00:21:52;102804.19;;;6.71;100.00
2875;BME280;1445;52.600;13.328;2023-02-12T00:24:17;102811.75;;;6.75;100.00
2875;BME280;1445;52.600;13.328;2023-02-12T00:26:42;102809.94;;;6.62;100.00
2875;BME280;1445;52.600;13.328;2023-02-12T00:29:09;102799.16;;;6.67;100.00
2875;BME280;1445;52.600;13.328;2023-02-12T00:31:34;102809.94;;;6.62;100.00
2875;BME280;1445;52.600;13.328;2023-02-12T00:34:00;102809.75;;;6.64;100.00
2875;BME280;1445;52.600;13.328;2023-02-12T00:36:27;102805.31;;;6.63;100.00
2875;BME280;1445;52.600;13.328;2023-02-12T00:38:54;102805.09;;;6.64;100.00
2875;BME280;1445;52.600;13.328;2023-02-12T00:41:21;102818.16;;;6.62;100.00
2875;BME280;1445;52.600;13.328;2023-02-12T00:43:46;102811.66;;;6.63;100.00
2875;BME280;1445;52.600;13.328;2023-02-12T00:46:13;102810.56;;;6.64;100.00
2875;BME280;1445;52.600;13.328;2023-02-12T00:48:38;102804.31;;;6.57;100.00
2875;BME280;1445;52.600;13.328;2023-02-12T00:51:04;102813.91;;;6.66;100.00
2875;BME280;1445;52.600;13.328;2023-02-12T00:53:30;102817.34;;;6.62;100.00
2875;BME280;1445;52.600;13.328;2023-02-12T00:55:56;102826.69;;;6.54;100.00
2875;BME280;1445;52.600;13.328;2023-02-12T00:58:21;102820.38;;;6.54;100.00
2875;BME280;1445;52.600;13.328;2023-02-12T01:00:47;102818.06;;;6.51;100.00
2875;BME280;1445;52.600;13.328;2023-02-12T01:03:13;102819.13;;;6.50;100.00
2875;BME280;1445;52.600;13.328;2023-02-12T01:05:38;102819.59;;;6.47;100.00
2875;BME280;1445;52.600;13.328;2023-02-12T01:08:04;102816.44;;;6.43;100.00
2875;BME280;1445;52.600;13.328;2023-02-12T01:10:30;102817.03;;;6.45;100.00
2875;BME280;1445;52.600;13.328;2023-02-12T01:12:55;102824.38;;;6.51;100.00
2875;BME280;1445;52.600;13.328;2023-02-12T01:15:21;102825.09;;;6.40;100.00
2875;BME280;1445;52.600;13.328;2023-02-12T01:17:46;102828.28;;;6.37;100.00
2875;BME280;1445;52.600;13.328;2023-02-12T01:20:14;102835.41;;;6.44;100.00
2875;BME280;1445;52.600;13.328;2023-02-12T01:22:42;102838.97;;;6.45;100.00
2875;BME280;1445;52.600;13.328;2023-02-12T01:25:07;102842.16;;;6.42;100.00
2875;BME280;1445;52.600;13.328;2023-02-12T01:27:33;102843.22;;;6.41;100.00
2875;BME280;1445;52.600;13.328;2023-02-12T01:29:58;102839.41;;;6.42;100.00
2875;BME280;1445;52.600;13.328;2023-02-12T01:32:24;102842.63;;;6.39;100.00
2875;BME280;1445;52.600;13.328;2023-02-12T01:34:49;102840.72;;;6.39;100.00
2875;BME280;1445;52.600;13.328;2023-02-12T01:37:14;102847.88;;;6.40;100.00
2875;BME280;1445;52.600;13.328;2023-02-12T01:39:40;102856.47;;;6.44;100.00
2875;BME280;1445;52.600;13.328;2023-02-12T01:42:05;102852.91;;;6.43;100.00
2875;BME280;1445;52.600;13.328;2023-02-12T01:44:32;102857.34;;;6.38;100.00
2875;BME280;1445;52.600;13.328;2023-02-12T01:47:05;102861.47;;;6.54;100.00
2875;BME280;1445;52.600;13.328;2023-02-12T01:49:35;102865.13;;;6.41;100.00
2875;BME280;1445;52.600;13.328;2023-02-12T01:52:06;102864.53;;;6.39;100.00
2875;BME280;1445;52.600;13.328;2023-02-12T01:54:36;102875.41;;;6.45;100.00
2875;BME280;1445;52.600;13.328;2023-02-12T01:57:03;102863.91;;;6.37;100.00
2875;BME280;1445;52.600;13.328;2023-02-12T01:59:30;102866.81;;;6.42;100.00
2875;BME280;1445;52.600;13.328;2023-02-12T02:01:57;102869.78;;;6.40;100.00
2875;BME280;1445;52.600;13.328;2023-02-12T02:04:26;102870.97;;;6.51;100.00
2875;BME280;1445;52.600;13.328;2023-02-12T02:07:04;102868.00;;;6.53;100.00
2875;BME280;1445;52.600;13.328;2023-02-12T02:09:32;102879.13;;;6.58;100.00
2875;BME280;1445;52.600;13.328;2023-02-12T02:11:58;102881.78;;;6.46;100.00
2875;BME280;1445;52.600;13.328;2023-02-12T02:14:43;102878.16;;;6.45;100.00
2875;BME280;1445;52.600;13.328;2023-02-12T02:25:18;102871.41;;;6.48;100.00
2875;BME280;1445;52.600;13.328;2023-02-12T02:30:56;102877.47;;;6.57;100.00
2875;BME280;1445;52.600;13.328;2023-02-12T02:33:41;102870.81;;;6.46;100.00
2875;BME280;1445;52.600;13.328;2023-02-12T02:42:30;102876.94;;;6.41;100.00
2875;BME280;1445;52.600;13.328;2023-02-12T02:45:03;102877.13;;;6.47;100.00
2875;BME280;1445;52.600;13.328;2023-02-12T02:47:34;102869.94;;;6.45;100.00
2875;BME280;1445;52.600;13.328;2023-02-12T02:50:05;102870.81;;;6.46;100.00
2875;BME280;1445;52.600;13.328;2023-02-12T02:52:49;102878.75;;;6.54;100.00
2875;BME280;1445;52.600;13.328;2023-02-12T02:55:19;102886.34;;;6.52;100.00
2875;BME280;1445;52.600;13.328;2023-02-12T02:57:56;102886.97;;;6.54;100.00
2875;BME280;1445;52.600;13.328;2023-02-12T03:00:56;102891.97;;;6.64;100.00
2875;BME280;1445;52.600;13.328;2023-02-12T03:03:53;102892.81;;;6.64;100.00
2875;BME280;1445;52.600;13.328;2023-02-12T03:06:42;102899.34;;;6.63;100.00
2875;BME280;1445;52.600;13.328;2023-02-12T03:09:48;102895.97;;;6.61;100.00
2875;BME280;1445;52.600;13.328;2023-02-12T03:12:18;102886.53;;;6.57;100.00
2875;BME280;1445;52.600;13.328;2023-02-12T03:14:51;102892.06;;;6.51;100.00
2875;BME280;1445;52.600;13.328;2023-02-12T03:17:21;102896.03;;;6.55;100.00
2875;BME280;1445;52.600;13.328;2023-02-12T03:19:52;102901.09;;;6.51;100.00
2875;BME280;1445;52.600;13.328;2023-02-12T03:22:22;102909.38;;;6.44;100.00
2875;BME280;1445;52.600;13.328;2023-02-12T03:24:53;102914.19;;;6.49;100.00
2875;BME280;1445;52.600;13.328;2023-02-12T03:27:32;102907.56;;;6.63;100.00
2875;BME280;1445;52.600;13.328;2023-02-12T03:30:00;102908.06;;;6.54;100.00
2875;BME280;1445;52.600;13.328;2023-02-12T03:35:24;102898.00;;;6.41;100.00
2875;BME280;1445;52.600;13.328;2023-02-12T03:38:30;102906.66;;;6.38;100.00
2875;BME280;1445;52.600;13.328;2023-02-12T03:41:33;102907.91;;;6.42;100.00
2875;BME280;1445;52.600;13.328;2023-02-12T03:44:22;102913.19;;;6.43;100.00
2875;BME280;1445;52.600;13.328;2023-02-12T03:49:40;102911.44;;;6.49;100.00
2875;BME280;1445;52.600;13.328;2023-02-12T03:52:11;102911.59;;;6.61;100.00
2875;BME280;1445;52.600;13.328;2023-02-12T03:54:36;102923.16;;;6.63;100.00
2875;BME280;1445;52.600;13.328;2023-02-12T03:57:09;102918.63;;;6.50;100.00
2875;BME280;1445;52.600;13.328;2023-02-12T03:59:38;102925.50;;;6.59;100.00
2875;BME280;1445;52.600;13.328;2023-02-12T04:02:04;102926.47;;;6.72;100.00
2875;BME280;1445;52.600;13.328;2023-02-12T04:04:31;102925.00;;;6.69;100.00
2875;BME280;1445;52.600;13.328;2023-02-12T04:06:57;102928.91;;;6.55;100.00
2875;BME280;1445;52.600;13.328;2023-02-12T04:09:24;102928.34;;;6.78;100.00
2875;BME280;1445;52.600;13.328;2023-02-12T04:14:43;102929.97;;;6.85;100.00
2875;BME280;1445;52.600;13.328;2023-02-12T04:17:33;102931.88;;;6.85;100.00
2875;BME280;1445;52.600;13.328;2023-02-12T04:20:24;102931.78;;;6.66;100.00
2875;BME280;1445;52.600;13.328;2023-02-12T04:31:03;102932.00;;;6.65;100.00
2875;BME280;1445;52.600;13.328;2023-02-12T04:33:46;102940.78;;;6.74;100.00
2875;BME280;1445;52.600;13.328;2023-02-12T04:36:20;102934.50;;;6.66;100.00
2875;BME280;1445;52.600;13.328;2023-02-12T04:38:52;102946.16;;;6.62;100.00
2875;BME280;1445;52.600;13.328;2023-02-12T04:41:18;102945.66;;;6.72;100.00
2875;BME280;1445;52.600;13.328;2023-02-12T04:43:44;102946.66;;;6.77;100.00
2875;BME280;1445;52.600;13.328;2023-02-12T04:46:10;102944.06;;;6.89;100.00
2875;BME280;1445;52.600;13.328;2023-02-12T04:48:54;102930.16;;;6.84;100.00
2875;BME280;1445;52.600;13.328;2023-02-12T04:51:19;102923.00;;;6.83;100.00
2875;BME280;1445;52.600;13.328;2023-02-12T04:53:45;102927.03;;;6.80;100.00
2875;BME280;1445;52.600;13.328;2023-02-12T04:56:11;102934.13;;;6.88;100.00
2875;BME280;1445;52.600;13.328;2023-02-12T04:58:38;102942.38;;;6.88;100.00
2875;BME280;1445;52.600;13.328;2023-02-12T05:01:03;102934.44;;;6.80;100.00
2875;BME280;1445;52.600;13.328;2023-02-12T05:03:29;102935.59;;;6.65;100.00
2875;BME280;1445;52.600;13.328;2023-02-12T05:05:54;102935.19;;;6.62;100.00
2875;BME280;1445;52.600;13.328;2023-02-12T05:08:20;102936.84;;;6.63;100.00
2875;BME280;1445;52.600;13.328;2023-02-12T05:10:45;102939.47;;;6.51;100.00
2875;BME280;1445;52.600;13.328;2023-02-12T05:13:10;102947.22;;;6.61;100.00
2875;BME280;1445;52.600;13.328;2023-02-12T05:15:38;102945.59;;;6.53;100.00
2875;BME280;1445;52.600;13.328;2023-02-12T05:18:03;102955.22;;;6.62;100.00
2875;BME280;1445;52.600;13.328;2023-02-12T05:20:29;102949.59;;;6.51;100.00
2875;BME280;1445;52.600;13.328;2023-02-12T05:22:54;102954.72;;;6.40;100.00
2875;BME280;1445;52.600;13.328;2023-02-12T05:25:20;102953.56;;;6.55;100.00
2875;BME280;1445;52.600;13.328;2023-02-12T05:27:45;102955.44;;;6.61;100.00
2875;BME280;1445;52.600;13.328;2023-02-12T05:30:11;102959.88;;;6.55;100.00
2875;BME280;1445;52.600;13.328;2023-02-12T05:32:36;102955.59;;;6.66;100.00
2875;BME280;1445;52.600;13.328;2023-02-12T05:35:02;102955.41;;;6.67;100.00
2875;BME280;1445;52.600;13.328;2023-02-12T05:37:28;102953.94;;;6.65;100.00
2875;BME280;1445;52.600;13.328;2023-02-12T05:39:55;102960.53;;;6.57;100.00
2875;BME280;1445;52.600;13.328;2023-02-12T05:42:21;102959.44;;;6.58;100.00
2875;BME280;1445;52.600;13.328;2023-02-12T05:44:46;102963.03;;;6.59;100.00
2875;BME280;1445;52.600;13.328;2023-02-12T05:47:11;102965.38;;;6.55;100.00
2875;BME280;1445;52.600;13.328;2023-02-12T05:49:37;102961.31;;;6.64;100.00
2875;BME280;1445;52.600;13.328;2023-02-12T05:52:02;102972.88;;;6.66;100.00
2875;BME280;1445;52.600;13.328;2023-02-12T05:54:27;102973.34;;;6.63;100.00
2875;BME280;1445;52.600;13.328;2023-02-12T05:56:53;102973.53;;;6.68;100.00
2875;BME280;1445;52.600;13.328;2023-02-12T05:59:21;102971.78;;;6.42;100.00
2875;BME280;1445;52.600;13.328;2023-02-12T06:01:48;102959.97;;;6.42;100.00
2875;BME280;1445;52.600;13.328;2023-02-12T06:04:25;102973.91;;;6.40;100.00
2875;BME280;1445;52.600;13.328;2023-02-12T06:06:51;102985.13;;;6.26;100.00
2875;BME280;1445;52.600;13.328;2023-02-12T06:09:17;102981.56;;;6.25;100.00
2875;BME280;1445;52.600;13.328;2023-02-12T06:11:43;102988.31;;;6.22;100.00
2875;BME280;1445;52.600;13.328;2023-02-12T06:14:13;102985.81;;;6.14;100.00
2875;BME280;1445;52.600;13.328;2023-02-12T06:16:38;102995.03;;;6.27;100.00
2875;BME280;1445;52.600;13.328;2023-02-12T06:19:04;102998.84;;;6.26;100.00
2875;BME280;1445;52.600;13.328;2023-02-12T06:21:30;103004.34;;;6.19;100.00
2875;BME280;1445;52.600;13.328;2023-02-12T06:23:56;103015.69;;;6.29;100.00
2875;BME280;1445;52.600;13.328;2023-02-12T06:26:22;103014.88;;;6.22;100.00
2875;BME280;1445;52.600;13.328;2023-02-12T06:28:48;103015.50;;;6.17;100.00
2875;BME280;1445;52.600;13.328;2023-02-12T06:31:27;103018.19;;;6.31;100.00
2875;BME280;1445;52.600;13.328;2023-02-12T06:33:54;103029.59;;;6.21;100.00
2875;BME280;1445;52.600;13.328;2023-02-12T06:36:20;103030.91;;;6.18;100.00
2875;BME280;1445;52.600;13.328;2023-02-12T06:38:47;103031.53;;;6.14;100.00
2875;BME280;1445;52.600;13.328;2023-02-12T06:41:12;103037.38;;;6.31;100.00
2875;BME280;1445;52.600;13.328;2023-02-12T06:43:38;103036.72;;;6.35;100.00
2875;BME280;1445;52.600;13.328;2023-02-12T06:46:05;103035.25;;;6.39;100.00
2875;BME280;1445;52.600;13.328;2023-02-12T06:48:31;103040.22;;;6.49;100.00
2875;BME280;1445;52.600;13.328;2023-02-12T06:51:10;103046.16;;;6.46;100.00
2875;BME280;1445;52.600;13.328;2023-02-12T06:53:36;103044.41;;;6.58;100.00
2875;BME280;1445;52.600;13.328;2023-02-12T06:56:06;103043.63;;;6.44;100.00
2875;BME280;1445;52.600;13.328;2023-02-12T06:58:35;103048.03;;;6.52;100.00
2875;BME280;1445;52.600;13.328;2023-02-12T07:01:12;103050.16;;;6.50;100.00
2875;BME280;1445;52.600;13.328;2023-02-12T07:03:51;103051.66;;;6.46;100.00
2875;BME280;1445;52.600;13.328;2023-02-12T07:06:16;103053.09;;;6.49;100.00
2875;BME280;1445;52.600;13.328;2023-02-12T07:08:42;103048.22;;;6.57;100.00
2875;BME280;1445;52.600;13.328;2023-02-12T07:11:08;103042.78;;;6.51;100.00
2875;BME280;1445;52.600;13.328;2023-02-12T07:13:33;103049.50;;;6.55;100.00
2875;BME280;1445;52.600;13.328;2023-02-12T07:16:07;103052.69;;;6.45;100.00
2875;BME280;1445;52.600;13.328;2023-02-12T07:18:34;103060.22;;;6.56;100.00
2875;BME280;1445;52.600;13.328;2023-02-12T07:21:00;103051.19;;;6.49;100.00
2875;BME280;1445;52.600;13.328;2023-02-12T07:23:25;103060.06;;;6.44;100.00
2875;BME280;1445;52.600;13.328;2023-02-12T07:26:02;103056.47;;;6.51;100.00
2875;BME280;1445;52.600;13.328;2023-02-12T07:28:28;103055.22;;;6.53;100.00
2875;BME280;1445;52.600;13.328;2023-02-12T07:30:58;103056.38;;;6.71;100.00
2875;BME280;1445;52.600;13.328;2023-02-12T07:33:23;103058.66;;;6.74;100.00
2875;BME280;1445;52.600;13.328;2023-02-12T07:35:49;103060.09;;;6.83;100.00
2875;BME280;1445;52.600;13.328;2023-02-12T07:38:14;103052.31;;;6.80;100.00
2875;BME280;1445;52.600;13.328;2023-02-12T07:40:39;103059.63;;;6.92;100.00
2875;BME280;1445;52.600;13.328;2023-02-12T07:43:05;103056.84;;;6.99;100.00
2875;BME280;1445;52.600;13.328;2023-02-12T07:45:30;103055.31;;;7.10;100.00
2875;BME280;1445;52.600;13.328;2023-02-12T07:47:56;103052.81;;;7.02;100.00
2875;BME280;1445;52.600;13.328;2023-02-12T07:50:21;103046.47;;;7.01;100.00
2875;BME280;1445;52.600;13.328;2023-02-12T07:52:49;103052.00;;;6.94;100.00
2875;BME280;1445;52.600;13.328;2023-02-12T07:55:15;103061.69;;;6.97;100.00
2875;BME280;1445;52.600;13.328;2023-02-12T07:57:41;103056.94;;;7.17;100.00
2875;BME280;1445;52.600;13.328;2023-02-12T08:00:07;103052.06;;;7.20;100.00
2875;BME280;1445;52.600;13.328;2023-02-12T08:02:32;103052.47;;;7.23;100.00
2875;BME280;1445;52.600;13.328;2023-02-12T08:04:58;103063.28;;;7.11;100.00
2875;BME280;1445;52.600;13.328;2023-02-12T08:07:24;103064.91;;;7.19;100.00
2875;BME280;1445;52.600;13.328;2023-02-12T08:09:49;103058.75;;;7.30;100.00
2875;BME280;1445;52.600;13.328;2023-02-12T08:12:16;103057.28;;;7.28;100.00
2875;BME280;1445;52.600;13.328;2023-02-12T08:14:41;103056.06;;;7.24;100.00
2875;BME280;1445;52.600;13.328;2023-02-12T08:17:06;103063.88;;;7.20;100.00
2875;BME280;1445;52.600;13.328;2023-02-12T08:19:33;103071.19;;;7.26;100.00
2875;BME280;1445;52.600;13.328;2023-02-12T08:21:58;103069.38;;;7.20;100.00
2875;BME280;1445;52.600;13.328;2023-02-12T08:24:26;103071.88;;;7.22;100.00
2875;BME280;1445;52.600;13.328;2023-02-12T08:26:51;103061.97;;;7.21;100.00
2875;BME280;1445;52.600;13.328;2023-02-12T08:29:19;103073.31;;;7.31;100.00
2875;BME280;1445;52.600;13.328;2023-02-12T08:31:47;103078.44;;;7.21;100.00
2875;BME280;1445;52.600;13.328;2023-02-12T08:34:24;103083.88;;;7.27;100.00
2875;BME280;1445;52.600;13.328;2023-02-12T08:36:51;103079.19;;;7.34;100.00
2875;BME280;1445;52.600;13.328;2023-02-12T08:39:21;103074.09;;;7.38;100.00
2875;BME280;1445;52.600;13.328;2023-02-12T08:41:47;103086.81;;;7.26;100.00
2875;BME280;1445;52.600;13.328;2023-02-12T08:44:13;103091.97;;;7.15;100.00
2875;BME280;1445;52.600;13.328;2023-02-12T08:46:42;103090.31;;;7.08;100.00
2875;BME280;1445;52.600;13.328;2023-02-12T08:49:12;103104.63;;;7.16;100.00
2875;BME280;1445;52.600;13.328;2023-02-12T08:51:40;103104.31;;;7.00;100.00
2875;BME280;1445;52.600;13.328;2023-02-12T08:54:10;103110.13;;;7.16;100.00
2875;BME280;1445;52.600;13.328;2023-02-12T08:56:36;103113.31;;;7.13;100.00
2875;BME280;1445;52.600;13.328;2023-02-12T08:59:03;103114.00;;;7.02;100.00
2875;BME280;1445;52.600;13.328;2023-02-12T09:01:31;103114.22;;;7.01;100.00
2875;BME280;1445;52.600;13.328;2023-02-12T09:03:57;103126.66;;;7.03;100.00
2875;BME280;1445;52.600;13.328;2023-02-12T09:06:25;103129.41;;;7.03;100.00
2875;BME280;1445;52.600;13.328;2023-02-12T09:08:52;103127.75;;;6.96;100.00
2875;BME280;1445;52.600;13.328;2023-02-12T09:11:20;103135.41;;;7.18;100.00
2875;BME280;1445;52.600;13.328;2023-02-12T09:13:48;103138.09;;;7.32;100.00
2875;BME280;1445;52.600;13.328;2023-02-12T09:16:14;103128.50;;;7.16;100.00
2875;BME280;1445;52.600;13.328;2023-02-12T09:18:40;103139.94;;;7.38;100.00
2875;BME280;1445;52.600;13.328;2023-02-12T09:21:13;103144.13;;;7.40;100.00
2875;BME280;1445;52.600;13.328;2023-02-12T09:23:41;103144.22;;;7.34;100.00
2875;BME280;1445;52.600;13.328;2023-02-12T09:26:08;103147.59;;;7.61;100.00
2875;BME280;1445;52.600;13.328;2023-02-12T09:28:35;103144.75;;;7.43;100.00
2875;BME280;1445;52.600;13.328;2023-02-12T09:31:05;103150.69;;;7.39;100.00
2875;BME280;1445;52.600;13.328;2023-02-12T09:33:32;103162.63;;;7.58;100.00
2875;BME280;1445;52.600;13.328;2023-02-12T09:36:06;103162.25;;;7.48;100.00
2875;BME280;1445;52.600;13.328;2023-02-12T09:38:32;103163.13;;;7.42;100.00
2875;BME280;1445;52.600;13.328;2023-02-12T09:46:18;103174.09;;;7.49;100.00
2875;BME280;1445;52.600;13.328;2023-02-12T09:51:15;103168.00;;;7.40;100.00
2875;BME280;1445;52.600;13.328;2023-02-12T09:53:45;103174.31;;;7.40;100.00
2875;BME280;1445;52.600;13.328;2023-02-12T09:56:14;103178.53;;;7.43;100.00
2875;BME280;1445;52.600;13.328;2023-02-12T09:58:52;103178.09;;;7.46;100.00
2875;BME280;1445;52.600;13.328;2023-02-12T10:01:20;103171.72;;;7.52;100.00
2875;BME280;1445;52.600;13.328;2023-02-12T10:03:48;103171.28;;;7.55;100.00
2875;BME280;1445;52.600;13.328;2023-02-12T10:06:24;103175.88;;;7.61;100.00
2875;BME280;1445;52.600;13.328;2023-02-12T10:17:39;103180.38;;;7.56;100.00
2875;BME280;1445;52.600;13.328;2023-02-12T10:28:25;103180.41;;;7.49;100.00
2875;BME280;1445;52.600;13.328;2023-02-12T10:38:41;103180.31;;;7.31;100.00
2875;BME280;1445;52.600;13.328;2023-02-12T10:41:11;103196.50;;;7.39;100.00
2875;BME280;1445;52.600;13.328;2023-02-12T10:43:39;103194.03;;;7.31;100.00
2875;BME280;1445;52.600;13.328;2023-02-12T10:46:04;103203.78;;;7.27;100.00
2875;BME280;1445;52.600;13.328;2023-02-12T10:48:34;103209.03;;;7.28;100.00
2875;BME280;1445;52.600;13.328;2023-02-12T10:53:41;103206.25;;;7.35;100.00
2875;BME280;1445;52.600;13.328;2023-02-12T10:58:35;103203.94;;;7.32;100.00
2875;BME280;1445;52.600;13.328;2023-02-12T11:01:02;103207.25;;;7.40;100.00
2875;BME280;1445;52.600;13.328;2023-02-12T11:03:30;103211.53;;;7.30;100.00
2875;BME280;1445;52.600;13.328;2023-02-12T11:06:10;103212.81;;;7.34;100.00
2875;BME280;1445;52.600;13.328;2023-02-12T11:08:37;103206.75;;;7.18;100.00
2875;BME280;1445;52.600;13.328;2023-02-12T11:11:22;103205.91;;;7.18;100.00
2875;BME280;1445;52.600;13.328;2023-02-12T11:14:01;103206.31;;;7.22;100.00
2875;BME280;1445;52.600;13.328;2023-02-12T11:16:33;103209.06;;;7.22;100.00
2875;BME280;1445;52.600;13.328;2023-02-12T11:19:07;103199.16;;;7.21;100.00
2875;BME280;1445;52.600;13.328;2023-02-12T11:21:34;103200.13;;;7.33;100.00
2875;BME280;1445;52.600;13.328;2023-02-12T11:29:45;103191.78;;;7.84;100.00
2875;BME280;1445;52.600;13.328;2023-02-12T11:32:17;103179.31;;;7.82;100.00
2875;BME280;1445;52.600;13.328;2023-02-12T11:34:43;103168.22;;;7.95;100.00
2875;BME280;1445;52.600;13.328;2023-02-12T11:37:17;103163.38;;;7.97;100.00
2875;BME280;1445;52.600;13.328;2023-02-12T11:39:48;103155.34;;;7.96;100.00
2875;BME280;1445;52.600;13.328;2023-02-12T11:42:20;103147.22;;;8.07;100.00
2875;BME280;1445;52.600;13.328;2023-02-12T11:44:53;103151.56;;;8.15;100.00
2875;BME280;1445;52.600;13.328;2023-02-12T11:47:32;103145.50;;;8.06;100.00
2875;BME280;1445;52.600;13.328;2023-02-12T11:52:48;103152.69;;;7.57;100.00
2875;BME280;1445;52.600;13.328;2023-02-12T11:55:26;103138.94;;;7.57;100.00
2875;BME280;1445;52.600;13.328;2023-02-12T11:57:54;103138.34;;;7.55;100.00
2875;BME280;1445;52.600;13.328;2023-02-12T12:00:32;103143.97;;;7.67;100.00
2875;BME280;1445;52.600;13.328;2023-02-12T12:03:12;103145.09;;;7.84;100.00
2875;BME280;1445;52.600;13.328;2023-02-12T12:05:44;103132.03;;;7.80;100.00
2875;BME280;1445;52.600;13.328;2023-02-12T12:08:25;103140.75;;;7.95;100.00
2875;BME280;1445;52.600;13.328;2023-02-12T12:11:05;103119.59;;;8.21;100.00
2875;BME280;1445;52.600;13.328;2023-02-12T12:13:39;103108.41;;;8.59;100.00
2875;BME280;1445;52.600;13.328;2023-02-12T12:16:21;103096.31;;;9.50;100.00
2875;BME280;1445;52.600;13.328;2023-02-12T12:19:14;103079.13;;;10.25;100.00
2875;BME280;1445;52.600;13.328;2023-02-12T12:24:40;103045.19;;;10.65;100.00
2875;BME280;1445;52.600;13.328;2023-02-12T12:30:04;103038.13;;;9.94;100.00
2875;BME280;1445;52.600;13.328;2023-02-12T12:32:35;103031.56;;;9.83;100.00
2875;BME280;1445;52.600;13.328;2023-02-12T12:35:03;103043.47;;;10.24;100.00
2875;BME280;1445;52.600;13.328;2023-02-12T12:37:40;103042.44;;;9.54;100.00
2875;BME280;1445;52.600;13.328;2023-02-12T12:43:25;103042.25;;;9.02;100.00
2875;BME280;1445;52.600;13.328;2023-02-12T13:05:00;103036.47;;;9.04;100.00
2875;BME280;1445;52.600;13.328;2023-02-12T13:07:45;103037.66;;;8.96;100.00
2875;BME280;1445;52.600;13.328;2023-02-12T13:10:39;103025.84;;;9.07;100.00
2875;BME280;1445;52.600;13.328;2023-02-12T13:15:59;103025.63;;;9.09;100.00
2875;BME280;1445;52.600;13.328;2023-02-12T13:18:38;103024.97;;;9.49;100.00
2875;BME280;1445;52.600;13.328;2023-02-12T13:21:17;103020.84;;;10.10;100.00
2875;BME280;1445;52.600;13.328;2023-02-12T13:23:54;103014.56;;;10.38;100.00
2875;BME280;1445;52.600;13.328;2023-02-12T13:29:12;103006.25;;;9.98;100.00
2875;BME280;1445;52.600;13.328;2023-02-12T13:31:48;103015.19;;;10.40;100.00
2875;BME280;1445;52.600;13.328;2023-02-12T13:34:17;103008.00;;;11.13;100.00
2875;BME280;1445;52.600;13.328;2023-02-12T13:36:44;102989.25;;;10.41;100.00
2875;BME280;1445;52.600;13.328;2023-02-12T13:39:21;102993.59;;;10.66;100.00
2875;BME280;1445;52.600;13.328;2023-02-12T13:44:34;102988.56;;;10.46;100.00
2875;BME280;1445;52.600;13.328;2023-02-12T13:53:02;102983.25;;;10.73;100.00
2875;BME280;1445;52.600;13.328;2023-02-12T14:01:09;102982.91;;;10.41;100.00
2875;BME280;1445;52.600;13.328;2023-02-12T14:03:36;103003.34;;;10.16;100.00
2875;BME280;1445;52.600;13.328;2023-02-12T14:08:42;102995.09;;;9.93;100.00
2875;BME280;1445;52.600;13.328;2023-02-12T14:11:12;102991.06;;;9.84;100.00
2875;BME280;1445;52.600;13.328;2023-02-12T14:14:05;102991.91;;;9.84;100.00
2875;BME280;1445;52.600;13.328;2023-02-12T14:21:59;102989.84;;;9.91;100.00
2875;BME280;1445;52.600;13.328;2023-02-12T14:27:29;102990.22;;;9.71;100.00
2875;BME280;1445;52.600;13.328;2023-02-12T14:35:34;102994.31;;;9.69;100.00
2875;BME280;1445;52.600;13.328;2023-02-12T14:40:50;103002.69;;;9.62;100.00
2875;BME280;1445;52.600;13.328;2023-02-12T14:46:41;103004.03;;;9.48;100.00
2875;BME280;1445;52.600;13.328;2023-02-12T14:48:58;102993.47;;;9.45;100.00
2875;BME280;1445;52.600;13.328;2023-02-12T14:51:41;103008.53;;;9.54;100.00
2875;BME280;1445;52.600;13.328;2023-02-12T14:54:17;103010.94;;;9.39;100.00
2875;BME280;1445;52.600;13.328;2023-02-12T14:56:47;103013.34;;;9.35;100.00
2875;BME280;1445;52.600;13.328;2023-02-12T14:59:17;103010.78;;;9.22;100.00
2875;BME280;1445;52.600;13.328;2023-02-12T15:01:44;103009.13;;;9.21;100.00
2875;BME280;1445;52.600;13.328;2023-02-12T15:04:19;103002.06;;;9.25;100.00
2875;BME280;1445;52.600;13.328;2023-02-12T15:06:53;103021.22;;;9.20;100.00
2875;BME280;1445;52.600;13.328;2023-02-12T15:09:28;103006.03;;;9.29;100.00
2875;BME280;1445;52.600;13.328;2023-02-12T15:11:57;103012.63;;;9.28;100.00
2875;BME280;1445;52.600;13.328;2023-02-12T15:14:31;103017.84;;;9.18;100.00
2875;BME280;1445;52.600;13.328;2023-02-12T15:17:13;103018.47;;;9.31;100.00
2875;BME280;1445;52.600;13.328;2023-02-12T15:19:59;103015.00;;;9.24;100.00
2875;BME280;1445;52.600;13.328;2023-02-12T15:22:32;103019.31;;;9.20;100.00
2875;BME280;1445;52.600;13.328;2023-02-12T15:25:22;103025.50;;;9.16;100.00
2875;BME280;1445;52.600;13.328;2023-02-12T15:27:58;103032.81;;;9.10;100.00
2875;BME280;1445;52.600;13.328;2023-02-12T15:30:27;103042.00;;;9.16;100.00
2875;BME280;1445;52.600;13.328;2023-02-12T15:32:58;103036.88;;;9.19;100.00
2875;BME280;1445;52.600;13.328;2023-02-12T15:35:28;103044.75;;;9.16;100.00
2875;BME280;1445;52.600;13.328;2023-02-12T15:37:55;103042.13;;;9.09;100.00
2875;BME280;1445;52.600;13.328;2023-02-12T15:40:22;103038.78;;;9.07;100.00
2875;BME280;1445;52.600;13.328;2023-02-12T15:42:53;103039.25;;;9.04;100.00
2875;BME280;1445;52.600;13.328;2023-02-12T15:45:29;103043.09;;;9.15;100.00